Time;durP1;ratioP1;P1;durP2;ratioP2;P2;SDS_P1;SDS_P2;PMS_P1;PMS_P2;Temp;Humidity;BMP_temperature;BMP_pressure;BME280_temperature;BME280_humidity;BME280_pressure;Samples;Min_cycle;Max_cycle;Signal;HPM_P1;HPM_P2
2021/10/18 00:01:42;;;;;;;63.67;25.95;;;5.90;99.90;;;;;;5032994;28;20056;-72
2021/10/18 00:04:08;;;;;;;64.70;27.17;;;5.90;99.90;;;;;;5032821;28;20065;-71
2021/10/18 00:06:33;;;;;;;59.60;24.27;;;5.90;99.90;;;;;;5042323;28;20067;-70
2021/10/18 00:08:59;;;;;;;62.65;24.90;;;5.90;99.90;;;;;;5052071;28;20032;-70
2021/10/18 00:11:26;;;;;;;58.72;24.70;;;5.80;99.90;;;;;;5049890;28;20025;-70
2021/10/18 00:13:52;;;;;;;55.50;24.92;;;5.80;99.90;;;;;;5051634;28;20116;-70
2021/10/18 00:16:18;;;;;;;57.90;23.15;;;5.80;99.90;;;;;;5051017;28;20044;-71
2021/10/18 00:18:44;;;;;;;63.75;25.25;;;5.70;99.90;;;;;;5051794;28;20029;-71
2021/10/18 00:21:10;;;;;;;56.20;22.67;;;5.70;99.90;;;;;;5051660;28;20094;-71
2021/10/18 00:23:36;;;;;;;62.20;25.08;;;5.70;99.90;;;;;;5050566;28;20025;-70
2021/10/18 00:26:02;;;;;;;57.53;23.52;;;5.70;99.90;;;;;;5051770;28;20555;-70
2021/10/18 00:28:28;;;;;;;55.75;23.45;;;5.70;99.90;;;;;;5050919;28;20061;-71
2021/10/18 00:30:53;;;;;;;53.33;22.23;;;5.70;99.90;;;;;;5051835;28;20032;-70
2021/10/18 00:33:19;;;;;;;54.00;23.08;;;5.80;99.90;;;;;;5051011;28;20029;-69
2021/10/18 00:35:45;;;;;;;56.90;23.35;;;5.80;99.90;;;;;;5036163;28;20433;-70
2021/10/18 00:38:11;;;;;;;54.15;22.45;;;5.90;99.90;;;;;;5051515;28;20438;-70
2021/10/18 00:40:37;;;;;;;58.92;22.80;;;5.90;99.90;;;;;;5050682;28;20517;-70
2021/10/18 00:43:03;;;;;;;55.72;22.23;;;5.90;99.90;;;;;;5051381;28;20111;-70
2021/10/18 00:45:30;;;;;;;54.60;22.73;;;6.00;99.90;;;;;;5050476;28;20035;-70
2021/10/18 00:47:57;;;;;;;62.50;24.20;;;6.00;99.90;;;;;;5051640;28;20028;-70
2021/10/18 00:50:24;;;;;;;60.03;25.40;;;6.00;99.90;;;;;;5050350;28;20510;-70
2021/10/18 00:52:50;;;;;;;58.38;23.33;;;6.00;99.90;;;;;;5051582;28;20428;-70
2021/10/18 00:55:15;;;;;;;61.60;25.08;;;6.00;99.90;;;;;;5051040;28;20040;-68
2021/10/18 00:57:42;;;;;;;56.58;24.27;;;6.00;99.90;;;;;;5050818;28;20021;-69
2021/10/18 01:00:08;;;;;;;56.58;23.17;;;6.00;99.90;;;;;;5051401;28;20074;-70
2021/10/18 01:02:34;;;;;;;53.88;22.58;;;6.10;99.90;;;;;;5051242;28;20173;-71
2021/10/18 01:05:00;;;;;;;56.88;22.98;;;6.10;99.90;;;;;;5051596;28;20522;-70
2021/10/18 01:07:26;;;;;;;53.00;22.83;;;6.10;99.90;;;;;;5050041;28;20059;-72
2021/10/18 01:09:52;;;;;;;55.50;23.15;;;6.10;99.90;;;;;;5051148;28;20025;-70
2021/10/18 01:12:18;;;;;;;56.05;23.55;;;6.10;99.90;;;;;;5050639;28;20447;-68
2021/10/18 01:14:44;;;;;;;61.38;24.73;;;6.10;99.90;;;;;;5050890;28;20423;-70
2021/10/18 01:17:09;;;;;;;54.17;23.42;;;6.10;99.90;;;;;;5051244;28;20110;-71
2021/10/18 01:19:35;;;;;;;53.95;24.55;;;6.10;99.90;;;;;;5050031;28;20616;-70
2021/10/18 01:22:02;;;;;;;51.33;24.23;;;6.10;99.90;;;;;;5051403;28;20088;-70
2021/10/18 01:24:29;;;;;;;52.47;22.52;;;6.20;99.90;;;;;;5050342;28;20044;-70
2021/10/18 01:26:55;;;;;;;53.50;22.45;;;6.20;99.90;;;;;;5051156;28;20454;-70
2021/10/18 01:29:21;;;;;;;47.25;21.92;;;6.20;99.90;;;;;;5051300;28;20033;-70
2021/10/18 01:31:47;;;;;;;46.80;22.42;;;6.20;99.90;;;;;;5054863;28;20025;-71
2021/10/18 01:34:13;;;;;;;45.42;21.98;;;6.20;99.90;;;;;;5054965;28;20528;-70
2021/10/18 01:36:39;;;;;;;50.50;23.13;;;6.20;99.90;;;;;;5053917;28;20029;-71
2021/10/18 01:39:05;;;;;;;53.13;23.63;;;6.20;99.90;;;;;;5054675;28;20410;-70
2021/10/18 01:41:30;;;;;;;49.00;22.38;;;6.20;99.90;;;;;;5034172;28;20033;-71
2021/10/18 01:43:56;;;;;;;46.22;22.67;;;6.20;99.90;;;;;;5034902;28;20533;-70
2021/10/18 01:46:22;;;;;;;49.92;21.70;;;6.20;99.90;;;;;;5034059;28;20032;-68
2021/10/18 01:48:48;;;;;;;45.97;21.92;;;6.30;99.90;;;;;;5034897;28;20500;-69
2021/10/18 01:51:13;;;;;;;53.80;24.65;;;6.20;99.90;;;;;;5054030;28;20497;-69
2021/10/18 01:53:39;;;;;;;50.47;23.65;;;6.30;99.90;;;;;;5053564;28;20108;-70
2021/10/18 01:56:05;;;;;;;48.95;21.83;;;6.30;99.90;;;;;;5054523;28;20104;-70
2021/10/18 01:58:32;;;;;;;47.83;23.15;;;6.30;99.90;;;;;;5053883;28;20355;-71
2021/10/18 02:00:58;;;;;;;50.22;21.48;;;6.30;99.90;;;;;;5054154;28;20047;-70
2021/10/18 02:03:24;;;;;;;46.88;22.08;;;6.30;99.90;;;;;;5053380;28;20381;-70
2021/10/18 02:05:50;;;;;;;46.30;21.05;;;6.30;99.90;;;;;;5054724;28;20031;-70
2021/10/18 02:08:15;;;;;;;52.65;22.60;;;6.30;99.90;;;;;;5053754;28;20025;-70
2021/10/18 02:10:41;;;;;;;48.08;21.75;;;6.30;99.90;;;;;;5052252;28;20037;-70
2021/10/18 02:13:07;;;;;;;47.08;23.45;;;6.30;99.90;;;;;;5054517;28;20124;-70
2021/10/18 02:15:32;;;;;;;48.28;22.25;;;6.30;99.90;;;;;;5053378;28;20374;-68
2021/10/18 02:17:58;;;;;;;48.95;22.88;;;6.30;99.90;;;;;;5054184;28;20545;-69
2021/10/18 02:20:23;;;;;;;49.90;21.98;;;6.20;99.90;;;;;;5052588;28;20037;-70
2021/10/18 02:22:49;;;;;;;51.85;22.02;;;6.30;99.90;;;;;;5053838;28;20025;-70
2021/10/18 02:25:15;;;;;;;48.17;21.70;;;6.20;99.90;;;;;;5054050;28;20051;-70
2021/10/18 02:27:41;;;;;;;49.00;22.00;;;6.20;99.90;;;;;;5052942;28;20021;-70
2021/10/18 02:30:09;;;;;;;50.30;22.45;;;6.20;99.90;;;;;;5053569;28;20079;-71
2021/10/18 02:32:35;;;;;;;49.55;21.98;;;6.20;99.90;;;;;;5053124;28;20033;-70
2021/10/18 02:35:01;;;;;;;42.15;19.63;;;6.30;99.90;;;;;;5054056;28;20025;-70
2021/10/18 02:37:26;;;;;;;41.85;20.30;;;6.20;99.90;;;;;;5051593;28;20036;-70
2021/10/18 02:39:52;;;;;;;41.28;19.88;;;6.20;99.90;;;;;;5053288;28;20032;-70
2021/10/18 02:42:17;;;;;;;38.17;18.77;;;6.20;99.90;;;;;;5053535;28;20037;-68
2021/10/18 02:44:43;;;;;;;37.72;17.92;;;6.20;99.90;;;;;;5053006;28;20425;-70
2021/10/18 02:47:09;;;;;;;36.70;17.85;;;6.20;99.90;;;;;;5053424;28;20114;-71
2021/10/18 02:49:36;;;;;;;34.55;17.95;;;6.20;99.90;;;;;;5052710;28;20021;-70
2021/10/18 02:52:02;;;;;;;34.47;17.42;;;6.20;99.90;;;;;;5053385;28;20036;-70
2021/10/18 02:54:28;;;;;;;32.13;17.48;;;6.20;99.90;;;;;;5052602;28;20061;-70
2021/10/18 02:56:54;;;;;;;33.88;17.45;;;6.10;99.90;;;;;;5052733;28;20110;-70
2021/10/18 02:59:19;;;;;;;34.00;17.13;;;6.10;99.90;;;;;;5052984;28;20040;-68
2021/10/18 03:01:45;;;;;;;37.05;18.20;;;6.10;99.90;;;;;;5052972;28;20035;-70
2021/10/18 03:04:11;;;;;;;40.60;19.50;;;6.10;99.90;;;;;;5053430;28;20041;-70
2021/10/18 03:06:36;;;;;;;39.90;19.10;;;6.10;99.90;;;;;;5052507;28;20025;-70
2021/10/18 03:09:02;;;;;;;38.83;18.52;;;6.00;99.90;;;;;;5052897;28;20056;-70
2021/10/18 03:11:28;;;;;;;40.72;19.65;;;6.00;99.90;;;;;;5052006;28;20040;-69
2021/10/18 03:13:54;;;;;;;47.63;20.48;;;6.00;99.90;;;;;;5053396;28;20037;-70
2021/10/18 03:16:20;;;;;;;49.38;20.52;;;6.00;99.90;;;;;;5052672;28;20051;-68
2021/10/18 03:18:46;;;;;;;46.38;20.45;;;6.00;99.90;;;;;;5052611;28;20052;-70
2021/10/18 03:21:11;;;;;;;45.55;19.88;;;6.00;99.90;;;;;;5053065;28;20029;-67
2021/10/18 03:23:37;;;;;;;47.72;20.42;;;6.00;99.90;;;;;;5051915;28;20534;-68
2021/10/18 03:26:03;;;;;;;46.92;20.27;;;6.00;99.90;;;;;;5052734;28;20024;-70
2021/10/18 03:28:28;;;;;;;49.03;20.50;;;6.00;99.90;;;;;;5052230;28;20060;-70
2021/10/18 03:30:54;;;;;;;50.35;19.85;;;6.10;99.90;;;;;;5052328;28;20049;-70
2021/10/18 03:33:19;;;;;;;46.10;19.77;;;6.10;99.90;;;;;;5052494;28;20370;-69
2021/10/18 03:35:45;;;;;;;46.55;18.88;;;6.10;99.90;;;;;;5052505;28;20032;-71
2021/10/18 03:38:11;;;;;;;50.25;20.42;;;6.10;99.90;;;;;;5052617;28;20052;-70
2021/10/18 03:40:37;;;;;;;50.42;21.70;;;6.10;99.90;;;;;;5051315;28;20108;-70
2021/10/18 03:43:02;;;;;;;42.78;18.98;;;6.10;99.90;;;;;;5051771;28;20052;-70
2021/10/18 03:45:28;;;;;;;51.63;21.67;;;6.10;99.90;;;;;;5051686;28;20052;-70
2021/10/18 03:47:54;;;;;;;42.22;19.40;;;6.20;99.90;;;;;;5052238;28;20037;-70
2021/10/18 03:50:20;;;;;;;48.67;20.08;;;6.20;99.90;;;;;;5052095;28;20025;-70
2021/10/18 03:52:45;;;;;;;46.08;21.02;;;6.20;99.90;;;;;;5049946;28;20025;-72
2021/10/18 03:55:11;;;;;;;53.47;22.98;;;6.20;99.90;;;;;;5052514;28;20059;-70
2021/10/18 03:57:37;;;;;;;53.70;23.75;;;6.30;99.90;;;;;;5051392;28;20028;-70
2021/10/18 04:00:05;;;;;;;63.20;23.80;;;6.30;99.90;;;;;;5051890;28;20028;-70
2021/10/18 04:02:30;;;;;;;56.38;23.33;;;6.30;99.90;;;;;;5051355;28;20033;-70
2021/10/18 04:04:56;;;;;;;56.20;23.20;;;6.40;99.90;;;;;;5052275;28;20393;-70
2021/10/18 04:07:22;;;;;;;56.90;24.13;;;6.40;99.90;;;;;;5051728;28;20076;-68
2021/10/18 04:09:48;;;;;;;63.50;25.85;;;6.40;99.90;;;;;;5051337;28;20053;-71
2021/10/18 04:12:14;;;;;;;64.32;25.02;;;6.40;99.90;;;;;;5051501;28;20036;-71
2021/10/18 04:14:40;;;;;;;54.58;23.45;;;6.50;99.90;;;;;;5051218;28;20029;-70
2021/10/18 04:17:05;;;;;;;61.67;24.75;;;6.50;99.90;;;;;;5051884;28;20067;-71
2021/10/18 04:19:31;;;;;;;63.05;24.23;;;6.50;99.90;;;;;;5050735;28;20630;-70
2021/10/18 04:21:57;;;;;;;61.83;25.48;;;6.60;99.90;;;;;;5051981;28;20163;-71
2021/10/18 04:24:22;;;;;;;63.90;24.80;;;6.60;99.90;;;;;;5051646;28;20033;-68
2021/10/18 04:26:48;;;;;;;59.97;24.95;;;6.60;99.90;;;;;;5051351;28;20147;-70
2021/10/18 04:29:14;;;;;;;70.72;27.33;;;6.60;99.90;;;;;;5051563;28;20029;-70
2021/10/18 04:31:39;;;;;;;64.47;24.70;;;6.60;99.90;;;;;;5051176;28;20029;-70
2021/10/18 04:34:05;;;;;;;60.53;24.30;;;6.70;99.90;;;;;;5051401;28;20393;-71
2021/10/18 04:36:31;;;;;;;59.80;24.98;;;6.70;99.90;;;;;;5049797;28;20082;-70
2021/10/18 04:38:57;;;;;;;60.28;24.65;;;6.60;99.90;;;;;;5051440;28;20433;-71
2021/10/18 04:41:22;;;;;;;53.53;23.27;;;6.70;99.90;;;;;;5051757;28;20056;-68
2021/10/18 04:43:48;;;;;;;56.92;25.15;;;6.70;99.90;;;;;;5050155;28;20107;-71
2021/10/18 04:46:14;;;;;;;66.18;27.52;;;6.70;99.90;;;;;;5052001;28;20476;-71
2021/10/18 04:48:40;;;;;;;67.57;26.35;;;6.70;99.90;;;;;;5050880;28;20083;-70
2021/10/18 04:51:06;;;;;;;64.03;25.80;;;6.70;99.90;;;;;;5051252;28;20039;-70
2021/10/18 04:53:31;;;;;;;59.67;25.15;;;6.80;99.90;;;;;;5050873;28;20112;-71
2021/10/18 04:55:58;;;;;;;62.45;25.80;;;6.80;99.90;;;;;;5051689;28;20029;-71
2021/10/18 04:58:24;;;;;;;60.45;25.20;;;6.80;99.90;;;;;;5050894;28;20061;-68
2021/10/18 05:00:55;;;;;;;66.85;26.35;;;6.80;99.90;;;;;;5050728;28;20025;-71
2021/10/18 05:03:22;;;;;;;72.85;27.73;;;6.80;99.90;;;;;;5051306;28;20044;-70
2021/10/18 05:05:48;;;;;;;69.35;27.48;;;6.80;99.90;;;;;;5053977;28;20033;-72
2021/10/18 05:08:14;;;;;;;63.67;26.70;;;6.80;99.90;;;;;;5055215;28;20540;-70
2021/10/18 05:10:41;;;;;;;58.20;24.20;;;6.80;99.90;;;;;;5054274;28;20029;-71
2021/10/18 05:13:08;;;;;;;57.60;24.38;;;6.80;99.90;;;;;;5055257;28;20072;-70
2021/10/18 05:15:34;;;;;;;69.53;28.77;;;6.80;99.90;;;;;;5054382;28;20168;-70
2021/10/18 05:18:00;;;;;;;64.38;27.05;;;6.80;99.90;;;;;;5055705;28;20029;-70
2021/10/18 05:20:27;;;;;;;69.38;26.40;;;6.80;99.90;;;;;;5054417;28;20033;-69
2021/10/18 05:22:52;;;;;;;67.07;27.20;;;6.80;99.90;;;;;;5054951;28;20450;-79
2021/10/18 05:25:18;;;;;;;64.97;26.30;;;6.80;99.90;;;;;;5055020;28;20025;-78
2021/10/18 05:27:44;;;;;;;61.58;24.48;;;6.80;99.90;;;;;;5054007;28;20052;-79
2021/10/18 05:30:11;;;;;;;65.82;27.85;;;6.80;99.90;;;;;;5054376;28;20104;-78
2021/10/18 05:32:37;;;;;;;62.38;25.73;;;6.80;99.90;;;;;;5054141;28;20033;-70
2021/10/18 05:35:04;;;;;;;68.85;26.58;;;6.90;99.90;;;;;;5055081;28;20037;-73
2021/10/18 05:37:29;;;;;;;62.20;26.70;;;6.90;99.90;;;;;;5053923;28;20076;-75
2021/10/18 05:39:55;;;;;;;67.78;28.55;;;6.90;99.90;;;;;;5054309;28;20035;-77
2021/10/18 05:42:21;;;;;;;69.82;28.88;;;6.90;99.90;;;;;;5054666;28;20053;-80
2021/10/18 05:44:47;;;;;;;62.90;27.63;;;7.00;99.90;;;;;;5053692;28;20025;-72
2021/10/18 05:47:12;;;;;;;65.53;25.67;;;7.00;99.90;;;;;;5054881;28;20025;-74
2021/10/18 05:49:38;;;;;;;59.67;26.00;;;6.90;99.90;;;;;;5054029;28;20458;-73
2021/10/18 05:52:05;;;;;;;64.47;27.30;;;7.00;99.90;;;;;;5054561;28;20029;-70
2021/10/18 05:54:31;;;;;;;56.92;24.30;;;7.00;99.90;;;;;;5053681;28;20033;-70
2021/10/18 05:56:56;;;;;;;61.58;26.30;;;7.00;99.90;;;;;;5054650;28;20036;-73
2021/10/18 05:59:22;;;;;;;57.28;25.60;;;7.00;99.90;;;;;;5054132;28;20032;-71
2021/10/18 06:01:47;;;;;;;57.42;25.55;;;7.00;99.90;;;;;;5053340;28;20385;-74
2021/10/18 06:04:13;;;;;;;52.97;24.52;;;7.10;99.90;;;;;;5054529;28;20029;-72
2021/10/18 06:06:39;;;;;;;49.53;23.13;;;7.10;99.90;;;;;;5053509;28;20112;-71
2021/10/18 06:09:06;;;;;;;51.10;23.23;;;7.10;99.90;;;;;;5040399;28;20432;-72
2021/10/18 06:11:32;;;;;;;52.33;24.48;;;7.20;99.90;;;;;;5058653;28;20119;-74
2021/10/18 06:13:58;;;;;;;54.88;24.85;;;7.10;99.90;;;;;;5053988;28;20041;-74
2021/10/18 06:16:23;;;;;;;64.97;27.70;;;7.20;99.90;;;;;;5052827;28;20103;-74
2021/10/18 06:18:49;;;;;;;59.65;25.63;;;7.20;99.90;;;;;;5052824;28;20537;-75
2021/10/18 06:21:15;;;;;;;59.88;26.35;;;7.30;99.90;;;;;;5053224;28;20021;-74
2021/10/18 06:23:43;;;;;;;64.68;27.83;;;7.30;99.90;;;;;;5053214;28;20609;-74
2021/10/18 06:26:12;;;;;;;60.05;26.88;;;7.40;99.90;;;;;;5054087;28;20029;-74
2021/10/18 06:28:41;;;;;;;59.20;27.15;;;7.40;99.90;;;;;;5053647;28;20028;-76
2021/10/18 06:31:07;;;;;;;57.38;25.95;;;7.40;99.90;;;;;;5053941;28;20033;-75
2021/10/18 06:33:32;;;;;;;60.45;26.70;;;7.50;99.90;;;;;;5053003;28;20044;-74
2021/10/18 06:35:58;;;;;;;59.97;26.48;;;7.50;99.90;;;;;;5053944;28;20031;-77
2021/10/18 06:38:24;;;;;;;57.65;25.20;;;7.60;99.90;;;;;;5051842;28;20075;-72
2021/10/18 06:40:50;;;;;;;57.78;26.50;;;7.60;99.90;;;;;;5043762;28;20052;-72
2021/10/18 06:43:18;;;;;;;59.75;26.00;;;7.70;99.90;;;;;;5074734;28;20418;-73
2021/10/18 06:45:45;;;;;;;60.47;26.60;;;7.70;99.90;;;;;;5073819;28;20066;-72
2021/10/18 06:48:13;;;;;;;53.90;25.52;;;7.80;99.90;;;;;;5069835;28;20021;-73
2021/10/18 06:50:39;;;;;;;60.53;27.10;;;7.80;99.90;;;;;;5052682;28;20060;-72
2021/10/18 06:53:17;;;;;;;55.90;25.45;;;7.90;99.90;;;;;;5053169;28;20429;-72
2021/10/18 06:55:44;;;;;;;54.35;26.23;;;7.90;99.90;;;;;;5052686;28;20116;-72
2021/10/18 06:58:10;;;;;;;56.83;25.08;;;7.90;99.90;;;;;;5053198;28;20112;-72
2021/10/18 07:00:36;;;;;;;53.03;26.05;;;8.00;99.90;;;;;;5052014;28;20084;-73
2021/10/18 07:03:03;;;;;;;50.47;24.95;;;8.10;99.90;;;;;;5052356;28;20048;-73
2021/10/18 07:05:28;;;;;;;46.80;23.05;;;8.10;99.90;;;;;;5052465;28;20029;-69
2021/10/18 07:07:54;;;;;;;45.92;22.55;;;8.20;99.90;;;;;;5052709;28;20067;-73
2021/10/18 07:10:20;;;;;;;46.88;23.70;;;8.20;99.90;;;;;;5056271;28;20025;-73
2021/10/18 07:12:45;;;;;;;45.58;23.95;;;8.20;99.90;;;;;;5052318;28;20145;-72
2021/10/18 07:15:11;;;;;;;42.30;22.05;;;8.30;99.90;;;;;;5053104;28;20033;-71
2021/10/18 07:17:37;;;;;;;45.67;24.67;;;8.30;99.90;;;;;;5051538;28;20113;-72
2021/10/18 07:20:05;;;;;;;45.40;23.00;;;8.40;99.90;;;;;;5052699;28;20058;-72
2021/10/18 07:22:41;;;;;;;41.42;22.10;;;8.50;99.90;;;;;;5051291;28;20473;-69
2021/10/18 07:25:07;;;;;;;38.35;20.95;;;8.50;99.90;;;;;;5051942;28;20033;-73
2021/10/18 07:27:33;;;;;;;40.30;21.48;;;8.60;99.90;;;;;;5051048;28;20033;-70
2021/10/18 07:29:58;;;;;;;38.85;21.50;;;8.70;99.90;;;;;;5052179;28;20048;-73
2021/10/18 07:32:25;;;;;;;33.60;19.58;;;8.70;99.90;;;;;;5052632;28;20107;-74
2021/10/18 07:34:51;;;;;;;38.75;21.00;;;8.70;99.90;;;;;;5051317;28;20033;-73
2021/10/18 07:37:22;;;;;;;36.58;21.63;;;8.80;99.90;;;;;;5052486;28;20037;-72
2021/10/18 07:39:48;;;;;;;37.35;21.33;;;8.80;99.90;;;;;;5036693;28;20139;-72
2021/10/18 07:42:14;;;;;;;36.03;20.20;;;8.80;99.90;;;;;;5051489;28;21730;-72
2021/10/18 07:44:40;;;;;;;32.53;19.90;;;8.90;99.90;;;;;;5051553;28;20393;-73
2021/10/18 07:47:06;;;;;;;35.45;21.73;;;9.00;99.90;;;;;;5051635;28;20032;-73
2021/10/18 07:49:36;;;;;;;36.97;21.63;;;9.00;99.90;;;;;;5051719;28;20025;-69
2021/10/18 07:52:04;;;;;;;35.42;20.75;;;9.10;99.90;;;;;;5051984;28;20064;-74
2021/10/18 07:54:30;;;;;;;34.72;21.75;;;9.10;99.90;;;;;;5052019;28;20041;-74
2021/10/18 07:56:56;;;;;;;33.75;20.92;;;9.20;99.90;;;;;;5051697;28;20033;-73
2021/10/18 07:59:22;;;;;;;36.13;21.13;;;9.20;99.90;;;;;;5051849;28;20024;-73
2021/10/18 08:01:48;;;;;;;32.05;19.88;;;9.20;99.90;;;;;;5051090;28;20025;-73
2021/10/18 08:04:13;;;;;;;31.20;18.98;;;9.20;99.90;;;;;;5051468;28;20037;-73
2021/10/18 08:06:39;;;;;;;32.88;21.38;;;9.30;99.90;;;;;;5051418;28;20025;-74
2021/10/18 08:09:08;;;;;;;36.67;21.80;;;9.30;99.90;;;;;;5052013;28;20028;-74
2021/10/18 08:11:34;;;;;;;32.65;21.13;;;9.40;99.90;;;;;;5071081;28;20032;-70
2021/10/18 08:13:59;;;;;;;36.45;21.75;;;9.50;99.90;;;;;;5066061;28;20078;-74
2021/10/18 08:16:25;;;;;;;34.40;21.67;;;9.40;99.90;;;;;;5051871;28;20024;-74
2021/10/18 08:18:52;;;;;;;31.60;21.40;;;9.40;99.90;;;;;;5050873;28;20086;-73
2021/10/18 08:21:18;;;;;;;35.25;21.50;;;9.40;99.90;;;;;;5052100;28;20427;-74
2021/10/18 08:23:44;;;;;;;36.70;21.77;;;9.40;99.90;;;;;;5050483;28;20041;-73
2021/10/18 08:26:10;;;;;;;34.15;21.27;;;9.40;99.90;;;;;;5051541;28;20067;-74
2021/10/18 08:28:36;;;;;;;36.55;22.50;;;9.40;99.90;;;;;;5050905;28;20386;-72
2021/10/18 08:31:01;;;;;;;35.03;22.75;;;9.40;99.90;;;;;;5051549;28;20570;-74
2021/10/18 08:33:28;;;;;;;33.28;20.90;;;9.40;99.90;;;;;;5051467;28;20033;-70
2021/10/18 08:35:54;;;;;;;36.45;23.23;;;9.40;99.90;;;;;;5050693;28;20023;-74
2021/10/18 08:41:10;;;;;;;32.53;20.92;;;9.50;99.90;;;;;;5051982;28;20552;-73
2021/10/18 08:46:04;;;;;;;35.58;22.50;;;9.50;99.90;;;;;;5051294;28;20025;-73
2021/10/18 08:48:30;;;;;;;35.70;21.95;;;9.50;99.90;;;;;;5050988;28;20036;-73
2021/10/18 08:50:56;;;;;;;39.95;23.15;;;9.60;99.90;;;;;;5050328;28;20025;-72
2021/10/18 08:53:21;;;;;;;29.67;19.90;;;9.60;99.90;;;;;;5051491;28;20036;-73
2021/10/18 08:55:47;;;;;;;39.15;23.95;;;9.60;99.90;;;;;;5050757;28;20036;-72
2021/10/18 08:58:13;;;;;;;33.15;22.35;;;9.60;99.90;;;;;;5051173;28;20059;-72
2021/10/18 09:00:51;;;;;;;31.98;20.83;;;9.60;99.90;;;;;;5050616;28;20032;-75
2021/10/18 09:03:32;;;;;;;36.05;21.50;;;9.60;99.90;;;;;;5051079;28;20045;-75
2021/10/18 09:06:16;;;;;;;39.22;23.00;;;9.60;99.90;;;;;;5050660;28;20029;-73
2021/10/18 09:08:55;;;;;;;37.72;22.77;;;9.60;99.90;;;;;;5050336;28;20487;-74
2021/10/18 09:11:24;;;;;;;37.45;23.15;;;9.70;99.90;;;;;;5069419;28;20031;-74
2021/10/18 09:13:52;;;;;;;39.75;24.38;;;9.70;99.90;;;;;;5070208;28;20443;-77
2021/10/18 09:16:33;;;;;;;36.50;23.17;;;9.80;99.90;;;;;;5071039;28;20033;-77
2021/10/18 09:19:09;;;;;;;37.83;23.13;;;9.80;99.90;;;;;;5070332;28;20457;-77
2021/10/18 09:21:56;;;;;;;37.40;23.92;;;9.80;99.90;;;;;;5050929;28;20061;-69
2021/10/18 09:24:33;;;;;;;39.10;23.45;;;9.80;99.90;;;;;;5051308;28;20103;-74
2021/10/18 09:27:28;;;;;;;38.40;23.73;;;9.80;99.90;;;;;;5050362;28;20466;-77
2021/10/18 09:29:54;;;;;;;40.45;23.48;;;9.90;99.90;;;;;;5040153;28;20068;-77
2021/10/18 09:32:26;;;;;;;35.08;23.33;;;9.90;99.90;;;;;;5051361;28;20126;-74
2021/10/18 09:35:14;;;;;;;45.97;23.60;;;9.90;99.90;;;;;;5050392;28;20530;-74
2021/10/18 09:37:41;;;;;;;37.40;21.15;;;10.00;99.90;;;;;;5049593;28;20028;-74
2021/10/18 09:40:08;;;;;;;79.00;23.33;;;10.00;99.90;;;;;;5050466;28;20032;-75
2021/10/18 09:42:34;;;;;;;36.85;22.02;;;10.10;99.90;;;;;;5050501;28;20063;-75
2021/10/18 09:45:23;;;;;;;40.30;22.38;;;10.10;99.90;;;;;;5050605;28;20100;-75
2021/10/18 10:53:44;;;;;;;28.33;18.90;;;12.00;99.90;;;;;;5053410;28;20055;-75
2021/10/18 10:56:27;;;;;;;26.60;17.55;;;12.10;99.90;;;;;;5053632;28;20363;-75
2021/10/18 10:59:24;;;;;;;28.35;19.58;;;12.30;99.90;;;;;;5051454;28;20428;-74
2021/10/18 11:01:58;;;;;;;24.55;17.73;;;12.60;99.90;;;;;;5052657;28;20025;-74
2021/10/18 11:04:30;;;;;;;23.92;17.33;;;12.70;99.90;;;;;;5053405;28;20029;-75
2021/10/18 11:06:56;;;;;;;23.67;16.98;;;12.90;99.90;;;;;;5052462;28;20037;-75
2021/10/18 11:09:39;;;;;;;21.75;15.50;;;12.90;99.90;;;;;;5053517;28;20458;-75
2021/10/18 11:12:07;;;;;;;27.58;18.40;;;12.80;99.90;;;;;;5052697;28;20135;-74
2021/10/18 11:14:33;;;;;;;23.02;16.75;;;12.60;99.90;;;;;;5053302;28;20067;-75
2021/10/18 11:16:58;;;;;;;24.52;17.35;;;12.60;99.90;;;;;;5051056;28;20056;-74
2021/10/18 11:19:24;;;;;;;23.30;15.50;;;12.50;99.90;;;;;;5052692;28;20036;-75
2021/10/18 11:22:00;;;;;;;31.10;18.75;;;12.40;99.90;;;;;;5046363;28;20297;-74
2021/10/18 11:24:40;;;;;;;26.88;19.23;;;12.50;99.90;;;;;;5052951;28;20035;-74
2021/10/18 11:27:06;;;;;;;29.45;18.63;;;12.30;99.90;;;;;;5054073;28;20119;-74
2021/10/18 11:29:33;;;;;;;29.77;19.98;;;12.30;99.90;;;;;;5052508;28;20544;-73
2021/10/18 11:32:08;;;;;;;26.65;18.33;;;12.50;99.90;;;;;;5051917;28;20060;-73
2021/10/18 11:34:34;;;;;;;27.67;19.55;;;12.50;99.90;;;;;;5052679;28;20028;-73
2021/10/18 11:36:59;;;;;;;29.83;20.65;;;12.50;99.90;;;;;;5051830;28;20029;-74
2021/10/18 11:39:27;;;;;;;40.78;20.00;;;12.60;99.90;;;;;;5052515;28;20021;-74
2021/10/18 11:41:59;;;;;;;40.55;20.48;;;12.60;99.90;;;;;;5051224;28;20493;-74
2021/10/18 11:44:42;;;;;;;30.92;20.17;;;12.60;99.90;;;;;;5052699;28;20067;-74
2021/10/18 11:47:31;;;;;;;32.17;21.75;;;12.70;99.90;;;;;;5052722;28;20036;-74
2021/10/18 11:50:09;;;;;;;32.80;21.67;;;12.70;99.90;;;;;;5051189;28;20033;-74
2021/10/18 11:52:45;;;;;;;35.60;22.23;;;12.80;99.90;;;;;;5061690;28;20111;-73
2021/10/18 11:55:14;;;;;;;31.77;20.45;;;12.90;99.90;;;;;;5072199;28;20024;-73
2021/10/18 11:57:42;;;;;;;29.25;20.33;;;12.90;99.90;;;;;;5072305;28;20166;-73
2021/10/18 12:00:10;;;;;;;30.02;20.65;;;13.00;99.90;;;;;;5071941;28;20488;-74
2021/10/18 12:02:42;;;;;;;28.25;18.17;;;13.20;99.90;;;;;;5072273;28;20024;-74
2021/10/18 12:05:08;;;;;;;24.05;16.92;;;13.40;99.90;;;;;;5071643;28;20121;-75
2021/10/18 12:07:53;;;;;;;29.00;19.30;;;;;;;;;;5071787;28;20412;-74
2021/10/18 12:10:26;;;;;;;22.92;16.35;;;14.10;99.90;;;;;;5071756;28;20017;-71
2021/10/18 12:13:07;;;;;;;24.75;17.23;;;14.40;99.90;;;;;;5070754;28;20385;-74
2021/10/18 12:15:45;;;;;;;26.00;18.30;;;14.70;99.90;;;;;;5072189;28;20366;-74
2021/10/18 12:18:13;;;;;;;23.13;17.05;;;;;;;;;;5071842;28;20025;-74
2021/10/18 12:20:47;;;;;;;22.95;17.17;;;;;;;;;;5059601;28;20039;-74
2021/10/18 12:23:21;;;;;;;26.90;17.83;;;;;;;;;;5064303;28;20124;-74
2021/10/18 12:25:55;;;;;;;23.27;17.48;;;;;;;;;;5071110;28;20028;-73
2021/10/18 12:28:25;;;;;;;25.20;17.20;;;;;;;;;;5071944;28;20373;-75
2021/10/18 12:30:51;;;;;;;;;;;;;;;;;;5071463;28;20025;-75
2021/10/18 12:33:17;;;;;;;21.05;15.35;;;16.00;92.40;;;;;;5071866;28;19908;-75
2021/10/18 12:35:56;;;;;;;22.02;16.58;;;16.00;92.70;;;;;;5071414;28;20026;-70
2021/10/18 12:38:25;;;;;;;22.90;16.45;;;16.10;92.10;;;;;;5071696;28;20021;-74
2021/10/18 12:40:51;;;;;;;20.13;14.75;;;16.10;92.10;;;;;;5069610;28;20379;-74
2021/10/18 12:43:26;;;;;;;20.15;14.27;;;16.30;91.70;;;;;;5071468;28;20067;-74
2021/10/18 12:45:52;;;;;;;20.17;15.20;;;16.70;90.50;;;;;;5070904;28;20036;-74
2021/10/18 12:48:24;;;;;;;26.48;17.25;;;16.90;89.40;;;;;;5071716;28;20028;-75
2021/10/18 12:50:50;;;;;;;31.00;17.50;;;17.00;87.40;;;;;;5070637;28;20485;-74
2021/10/18 12:53:33;;;;;;;21.55;16.23;;;16.90;86.90;;;;;;5070869;28;20063;-72
2021/10/18 12:55:59;;;;;;;23.80;15.85;;;16.80;87.30;;;;;;5070754;28;20021;-74
2021/10/18 12:58:34;;;;;;;20.55;14.60;;;16.70;87.50;;;;;;5071667;28;20074;-74
2021/10/18 13:00:59;;;;;;;20.98;14.68;;;16.70;86.90;;;;;;5070671;28;20032;-74
2021/10/18 13:03:25;;;;;;;20.38;13.38;;;16.70;87.10;;;;;;5071302;28;20040;-75
2021/10/18 13:05:55;;;;;;;19.75;14.23;;;16.70;87.40;;;;;;5070815;28;20028;-74
2021/10/18 13:08:26;;;;;;;24.23;15.43;;;16.70;86.10;;;;;;5071105;28;20446;-74
2021/10/18 13:10:52;;;;;;;;;;;16.90;85.30;;;;;;5071161;28;20070;-74
2021/10/18 13:13:23;;;;;;;18.42;13.57;;;17.00;84.10;;;;;;5071369;28;19912;-74
2021/10/18 13:15:50;;;;;;;20.92;14.77;;;17.00;84.80;;;;;;5070679;28;20028;-74
2021/10/18 13:18:17;;;;;;;23.42;14.50;;;17.00;83.30;;;;;;5071127;28;20104;-73
2021/10/18 13:20:44;;;;;;;25.60;16.95;;;16.90;85.10;;;;;;5058628;28;20040;-75
2021/10/18 13:23:12;;;;;;;27.10;18.13;;;16.90;85.80;;;;;;5065148;28;20036;-74
2021/10/18 13:25:41;;;;;;;28.38;16.90;;;16.80;85.40;;;;;;5072040;28;20032;-74
2021/10/18 13:28:08;;;;;;;21.60;16.30;;;16.70;86.80;;;;;;5074414;28;20017;-74
2021/10/18 13:30:35;;;;;;;23.20;17.05;;;16.60;87.40;;;;;;5075091;28;20073;-75
2021/10/18 13:33:03;;;;;;;23.48;16.70;;;16.70;87.70;;;;;;5074020;28;20544;-75
2021/10/18 13:35:30;;;;;;;19.52;14.05;;;16.80;86.40;;;;;;5074845;28;20039;-75
2021/10/18 13:37:56;;;;;;;16.70;12.68;;;16.80;85.50;;;;;;5074288;28;20032;-75
2021/10/18 13:40:24;;;;;;;19.08;13.45;;;16.80;84.30;;;;;;5074797;28;20238;-75
2021/10/18 13:42:50;;;;;;;20.90;15.05;;;16.70;84.00;;;;;;5073484;28;20052;-74
2021/10/18 13:45:19;;;;;;;18.08;15.30;;;16.60;84.60;;;;;;5074796;28;20094;-74
2021/10/18 13:47:45;;;;;;;19.52;14.52;;;16.50;84.90;;;;;;5074572;28;20390;-70
2021/10/18 13:50:11;;;;;;;23.67;15.38;;;16.40;86.00;;;;;;5073726;28;20032;-75
2021/10/18 13:52:37;;;;;;;19.17;14.23;;;16.30;87.50;;;;;;5074244;28;20057;-75